createdAt,value
2018-06-15T00:00:19.580Z,12.27
2018-06-15T00:02:53.577Z,12.11
2018-06-15T00:05:22.580Z,12.19
2018-06-15T00:07:51.593Z,12.17
2018-06-15T00:10:20.633Z,12.16
2018-06-15T00:12:50.400Z,12.14
2018-06-15T00:15:19.476Z,12.21
2018-06-15T00:17:48.498Z,12.20
2018-06-15T00:20:17.543Z,12.14
2018-06-15T00:22:46.609Z,12.19
2018-06-15T00:25:15.583Z,12.08
2018-06-15T00:27:44.743Z,12.14
2018-06-15T00:30:13.771Z,12.11
2018-06-15T00:32:43.033Z,12.03
2018-06-15T00:35:12.064Z,12.08
2018-06-15T00:37:41.271Z,12.11
2018-06-15T00:40:10.269Z,12.08
2018-06-15T00:42:39.248Z,12.02
2018-06-15T00:45:08.320Z,11.97
2018-06-15T00:47:37.307Z,12.00
2018-06-15T00:50:06.395Z,11.96
2018-06-15T00:52:35.605Z,12.04
2018-06-15T00:55:04.572Z,12.04
2018-06-15T00:57:45.776Z,12.02
2018-06-15T01:00:14.898Z,11.98
2018-06-15T01:02:43.859Z,11.85
2018-06-15T01:05:12.978Z,11.84
2018-06-15T01:07:42.443Z,11.86
2018-06-15T01:10:11.512Z,11.83
2018-06-15T01:12:40.485Z,11.83
2018-06-15T01:15:09.496Z,11.85
2018-06-15T01:17:39.138Z,11.78
2018-06-15T01:20:08.446Z,11.84
2018-06-15T01:22:37.539Z,11.83
2018-06-15T01:25:06.897Z,11.77
2018-06-15T01:27:35.910Z,11.81
2018-06-15T01:30:05.576Z,11.84
2018-06-15T01:32:34.817Z,11.86
2018-06-15T01:35:04.100Z,11.84
2018-06-15T01:37:33.066Z,11.86
2018-06-15T01:40:02.134Z,11.86
2018-06-15T01:42:31.479Z,11.82
2018-06-15T01:45:00.618Z,11.83
2018-06-15T01:47:29.651Z,11.75
2018-06-15T01:49:58.609Z,11.74
2018-06-15T01:52:27.674Z,11.67
2018-06-15T01:54:56.660Z,11.67
2018-06-15T01:57:25.898Z,11.72
2018-06-15T01:59:54.972Z,11.63
2018-06-15T02:02:24.095Z,11.63
2018-06-15T02:04:53.075Z,11.62
2018-06-15T02:07:22.097Z,11.57
2018-06-15T02:09:51.225Z,11.58
2018-06-15T02:12:20.416Z,11.55
2018-06-15T02:14:49.429Z,11.54
2018-06-15T02:17:18.477Z,11.55
2018-06-15T02:19:47.459Z,11.55
2018-06-15T02:22:16.460Z,11.52
2018-06-15T02:24:45.455Z,11.54
2018-06-15T02:27:14.436Z,11.45
2018-06-15T02:29:43.539Z,11.48
2018-06-15T02:32:12.765Z,11.48
2018-06-15T02:34:41.868Z,11.44
2018-06-15T02:37:10.994Z,11.40
2018-06-15T02:39:40.203Z,11.39
2018-06-15T02:42:09.285Z,11.58
2018-06-15T02:44:38.363Z,11.56
2018-06-15T02:47:07.460Z,11.51
2018-06-15T02:49:36.448Z,11.55
2018-06-15T02:52:05.453Z,11.57
2018-06-15T02:54:34.477Z,11.58
2018-06-15T02:57:03.484Z,11.56
2018-06-15T02:59:33.411Z,11.59
2018-06-15T03:02:02.483Z,11.56
2018-06-15T03:04:31.425Z,11.54
2018-06-15T03:07:00.439Z,11.55
2018-06-15T03:09:29.456Z,11.47
2018-06-15T03:11:58.472Z,11.49
2018-06-15T03:14:27.509Z,11.49
2018-06-15T03:16:56.588Z,11.52
2018-06-15T03:19:25.583Z,11.55
2018-06-15T03:21:54.572Z,11.54
2018-06-15T03:24:23.559Z,11.57
2018-06-15T03:26:52.634Z,11.59
2018-06-15T03:29:21.688Z,11.53
2018-06-15T03:31:50.836Z,11.53
2018-06-15T03:34:19.825Z,11.50
2018-06-15T03:36:49.399Z,11.45
2018-06-15T03:39:18.637Z,11.49
2018-06-15T03:41:48.496Z,11.50
2018-06-15T03:44:17.595Z,11.56
2018-06-15T03:46:46.569Z,11.57
2018-06-15T03:49:15.595Z,11.55
2018-06-15T03:51:44.677Z,11.53
2018-06-15T03:54:14.010Z,11.51
2018-06-15T03:56:43.274Z,11.43
2018-06-15T03:59:12.255Z,11.52
2018-06-15T04:01:41.587Z,11.61
2018-06-15T04:04:10.907Z,11.68
2018-06-15T04:06:40.268Z,11.70
2018-06-15T04:09:10.482Z,11.73
2018-06-15T04:11:39.798Z,11.62
2018-06-15T04:14:08.775Z,11.62
2018-06-15T04:16:38.283Z,11.65
2018-06-15T04:19:07.781Z,11.69
2018-06-15T04:21:37.157Z,11.70
2018-06-15T04:24:06.996Z,11.85
2018-06-15T04:26:36.517Z,11.77
2018-06-15T04:29:05.880Z,11.90
2018-06-15T04:31:35.690Z,11.93
2018-06-15T04:34:04.936Z,12.13
2018-06-15T04:36:34.286Z,12.12
2018-06-15T04:39:03.437Z,12.15
2018-06-15T04:41:32.527Z,12.25
2018-06-15T04:44:01.540Z,12.27
2018-06-15T04:46:30.623Z,12.33
2018-06-15T04:48:59.712Z,12.28
2018-06-15T04:51:28.813Z,12.38
2018-06-15T04:53:58.087Z,12.46
2018-06-15T04:56:27.423Z,12.48
2018-06-15T04:58:56.478Z,12.49
2018-06-15T05:01:25.506Z,12.57
2018-06-15T05:03:54.592Z,12.61
2018-06-15T05:06:23.655Z,12.55
2018-06-15T05:08:52.694Z,12.71
2018-06-15T05:11:21.877Z,12.82
2018-06-15T05:13:50.890Z,12.78
2018-06-15T05:16:19.928Z,12.95
2018-06-15T05:18:48.928Z,13.14
2018-06-15T05:21:17.953Z,13.29
2018-06-15T05:23:54.020Z,13.38
2018-06-15T05:26:23.842Z,13.57
2018-06-15T05:28:52.907Z,13.74
2018-06-15T05:31:22.404Z,13.86
2018-06-15T05:33:51.961Z,13.90
2018-06-15T05:36:21.465Z,13.88
2018-06-15T05:38:50.894Z,14.09
2018-06-15T05:41:21.008Z,14.24
2018-06-15T05:43:50.077Z,14.15
2018-06-15T05:46:19.392Z,14.19
2018-06-15T05:48:48.702Z,14.27
2018-06-15T05:51:18.958Z,14.35
2018-06-15T05:53:48.336Z,14.38
2018-06-15T05:56:17.538Z,14.42
2018-06-15T05:58:46.964Z,14.52
2018-06-15T06:01:16.411Z,14.66
2018-06-15T06:03:45.852Z,14.87
2018-06-15T06:06:15.316Z,14.99
2018-06-15T06:08:44.535Z,15.07
2018-06-15T06:11:14.040Z,15.03
2018-06-15T06:13:43.430Z,15.17
2018-06-15T06:16:12.942Z,15.34
2018-06-15T06:18:42.320Z,15.33
2018-06-15T06:21:11.750Z,15.50
2018-06-15T06:23:41.506Z,15.51
2018-06-15T06:26:10.901Z,15.55
2018-06-15T06:28:40.509Z,15.53
2018-06-15T06:31:10.349Z,15.56
2018-06-15T06:33:39.785Z,15.42
2018-06-15T06:36:09.247Z,15.43
2018-06-15T06:38:38.813Z,15.48
2018-06-15T06:41:08.043Z,15.43
2018-06-15T06:43:37.689Z,15.51
2018-06-15T06:46:06.775Z,15.65
2018-06-15T06:48:35.768Z,15.74
2018-06-15T06:51:05.268Z,15.82
2018-06-15T06:53:34.531Z,15.78
2018-06-15T06:56:03.578Z,15.87
2018-06-15T06:58:32.647Z,15.81
2018-06-15T07:01:02.427Z,15.71
2018-06-15T07:03:31.493Z,16.43
2018-06-15T07:06:00.608Z,16.65
2018-06-15T07:08:31.115Z,16.67
2018-06-15T07:11:00.161Z,16.49
2018-06-15T07:13:29.199Z,16.32
2018-06-15T07:15:58.212Z,16.42
2018-06-15T07:18:27.297Z,16.60
2018-06-15T07:20:56.404Z,16.70
2018-06-15T07:23:25.486Z,16.41
2018-06-15T07:25:54.643Z,16.22
2018-06-15T07:28:23.682Z,15.88
2018-06-15T07:30:52.811Z,16.07
2018-06-15T07:33:21.939Z,15.91
2018-06-15T07:35:51.245Z,15.94
2018-06-15T07:38:20.586Z,15.84
2018-06-15T07:40:49.545Z,16.23
2018-06-15T07:43:18.619Z,16.32
2018-06-15T07:45:47.667Z,16.55
2018-06-15T07:48:16.670Z,16.19
2018-06-15T07:50:45.756Z,16.32
2018-06-15T07:53:15.456Z,16.43
2018-06-15T07:55:44.840Z,16.41
2018-06-15T07:58:13.905Z,16.48
2018-06-15T08:00:42.933Z,16.59
2018-06-15T08:03:12.264Z,16.58
2018-06-15T08:05:41.345Z,16.79
2018-06-15T08:08:10.382Z,17.02
2018-06-15T08:10:39.381Z,17.13
2018-06-15T08:13:09.123Z,17.18
2018-06-15T08:15:38.254Z,16.85
2018-06-15T08:18:07.241Z,16.68
2018-06-15T08:20:36.189Z,16.62
2018-06-15T08:23:05.340Z,16.82
2018-06-15T08:25:34.343Z,17.20
2018-06-15T08:28:03.407Z,17.54
2018-06-15T08:30:38.506Z,17.17
2018-06-15T08:33:07.806Z,17.27
2018-06-15T08:35:37.176Z,17.33
2018-06-15T08:38:06.295Z,17.48
2018-06-15T08:40:35.254Z,18.00
2018-06-15T08:43:04.311Z,18.19
2018-06-15T08:45:33.386Z,18.75
2018-06-15T08:48:02.450Z,18.28
2018-06-15T08:50:31.460Z,18.07
2018-06-15T08:53:00.456Z,18.24
2018-06-15T08:55:29.442Z,17.49
2018-06-15T08:57:58.591Z,17.57
2018-06-15T09:00:27.684Z,17.82
2018-06-15T09:02:56.672Z,17.81
2018-06-15T09:05:25.892Z,17.58
2018-06-15T09:07:54.989Z,17.76
2018-06-15T09:10:24.090Z,17.75
2018-06-15T09:12:53.130Z,17.42
2018-06-15T09:15:22.158Z,17.61
2018-06-15T09:17:51.188Z,17.34
2018-06-15T09:20:20.288Z,17.57
2018-06-15T09:22:49.296Z,17.65
2018-06-15T09:25:18.357Z,17.57
2018-06-15T09:27:47.381Z,17.59
2018-06-15T09:30:16.493Z,17.99
2018-06-15T09:32:45.620Z,17.78
2018-06-15T09:35:14.620Z,17.93
2018-06-15T09:37:44.078Z,17.84
2018-06-15T09:40:13.180Z,18.09
2018-06-15T09:42:42.477Z,17.94
2018-06-15T09:45:11.502Z,17.74
2018-06-15T09:47:40.689Z,18.06
2018-06-15T09:50:09.799Z,18.17
2018-06-15T09:52:39.047Z,18.27
2018-06-15T09:55:08.028Z,18.13
2018-06-15T09:57:37.201Z,18.42
2018-06-15T10:00:06.228Z,17.90
2018-06-15T10:02:36.554Z,17.79
2018-06-15T10:05:05.695Z,17.88
2018-06-15T10:07:34.694Z,17.82
2018-06-15T10:10:03.764Z,17.92
2018-06-15T10:12:33.163Z,18.22
2018-06-15T10:15:02.265Z,18.29
2018-06-15T10:17:31.380Z,18.51
2018-06-15T10:20:01.185Z,18.63
2018-06-15T10:22:30.307Z,18.45
2018-06-15T10:24:59.400Z,18.24
2018-06-15T10:27:28.416Z,18.08
2018-06-15T10:29:57.466Z,18.27
2018-06-15T10:32:26.550Z,18.18
2018-06-15T10:34:55.577Z,18.24
2018-06-15T10:37:24.690Z,18.39
2018-06-15T10:39:53.729Z,18.48
2018-06-15T10:42:22.865Z,18.72
2018-06-15T10:44:52.720Z,18.54
2018-06-15T10:47:22.156Z,19.16
2018-06-15T10:49:51.179Z,19.38
2018-06-15T10:52:20.146Z,19.17
2018-06-15T10:54:49.239Z,19.77
2018-06-15T10:57:18.309Z,19.53
2018-06-15T10:59:47.414Z,19.27
2018-06-15T11:02:16.477Z,19.40
2018-06-15T11:04:45.491Z,19.27
2018-06-15T11:07:14.570Z,19.27
2018-06-15T11:09:43.767Z,19.40
2018-06-15T11:12:12.957Z,19.34
2018-06-15T11:14:43.143Z,19.69
2018-06-15T11:17:12.278Z,19.68
2018-06-15T11:19:41.608Z,19.43
2018-06-15T11:22:11.074Z,19.34
2018-06-15T11:24:40.365Z,19.75
2018-06-15T11:27:09.441Z,19.99
2018-06-15T11:29:39.012Z,19.98
2018-06-15T11:32:08.837Z,20.12
2018-06-15T11:34:38.703Z,20.31
2018-06-15T11:37:08.242Z,20.03
2018-06-15T11:39:37.325Z,19.62
2018-06-15T11:42:06.918Z,19.24
2018-06-15T11:44:36.052Z,20.02
2018-06-15T11:47:05.095Z,19.96
2018-06-15T11:49:34.249Z,19.81
2018-06-15T11:52:03.314Z,19.80
2018-06-15T11:54:33.150Z,19.61
2018-06-15T11:57:02.270Z,19.83
2018-06-15T11:59:31.336Z,19.26
2018-06-15T12:02:00.470Z,19.13
2018-06-15T12:04:29.496Z,19.21
2018-06-15T12:06:58.543Z,19.48
2018-06-15T12:09:27.547Z,20.10
2018-06-15T12:11:56.876Z,20.42
2018-06-15T12:14:25.840Z,19.80
2018-06-15T12:16:55.493Z,19.09
2018-06-15T12:19:24.455Z,19.19
2018-06-15T12:21:54.040Z,18.95
2018-06-15T12:24:29.364Z,19.07
2018-06-15T12:26:58.469Z,19.27
2018-06-15T12:29:27.571Z,19.29
2018-06-15T12:31:56.760Z,19.45
2018-06-15T12:34:25.830Z,19.61
2018-06-15T12:36:54.890Z,19.70
2018-06-15T12:39:24.105Z,19.81
2018-06-15T12:41:54.544Z,19.57
2018-06-15T12:44:24.855Z,19.30
2018-06-15T12:46:53.900Z,19.15
2018-06-15T12:49:23.322Z,19.26
2018-06-15T12:51:53.348Z,19.18
2018-06-15T12:54:22.459Z,19.69
2018-06-15T12:56:51.436Z,20.05
2018-06-15T12:59:20.467Z,20.08
2018-06-15T13:01:49.516Z,20.06
2018-06-15T13:04:19.299Z,19.86
2018-06-15T13:06:48.485Z,19.71
2018-06-15T13:09:17.598Z,19.82
2018-06-15T13:11:46.662Z,19.42
2018-06-15T13:14:15.689Z,19.72
2018-06-15T13:16:44.719Z,19.52
2018-06-15T13:19:13.814Z,19.38
2018-06-15T13:21:42.856Z,19.18
2018-06-15T13:24:12.222Z,19.96
2018-06-15T13:26:41.356Z,20.38
2018-06-15T13:29:10.370Z,20.20
2018-06-15T13:31:39.410Z,19.65
2018-06-15T13:34:08.794Z,19.57
2018-06-15T13:36:38.121Z,19.93
2018-06-15T13:39:10.787Z,20.14
2018-06-15T13:41:39.794Z,20.51
2018-06-15T13:44:09.165Z,20.63
2018-06-15T13:46:38.492Z,20.18
2018-06-15T13:49:07.610Z,20.54
2018-06-15T13:51:36.840Z,20.70
2018-06-15T13:54:05.900Z,20.60
2018-06-15T13:56:34.889Z,21.30
2018-06-15T13:59:03.949Z,20.82
2018-06-15T14:01:33.007Z,20.74
2018-06-15T14:04:02.125Z,20.92
2018-06-15T14:06:31.246Z,20.88
2018-06-15T14:09:00.383Z,20.30
2018-06-15T14:11:29.453Z,20.52
2018-06-15T14:13:58.588Z,21.02
2018-06-15T14:16:27.684Z,21.29
2018-06-15T14:18:57.112Z,21.24
2018-06-15T14:21:27.512Z,20.82
2018-06-15T14:23:56.608Z,20.63
2018-06-15T14:26:25.680Z,20.25
2018-06-15T14:28:54.901Z,19.97
2018-06-15T14:31:24.091Z,19.80
2018-06-15T14:33:55.412Z,20.05
2018-06-15T14:36:24.574Z,20.27
2018-06-15T14:38:53.649Z,20.66
2018-06-15T14:41:22.712Z,20.84
2018-06-15T14:43:51.799Z,21.17
2018-06-15T14:46:20.869Z,21.18
2018-06-15T14:48:50.003Z,21.20
2018-06-15T14:51:19.033Z,21.00
2018-06-15T14:53:48.016Z,20.96
2018-06-15T14:56:17.039Z,20.59
2018-06-15T14:58:46.093Z,20.84
2018-06-15T15:01:15.211Z,20.76
2018-06-15T15:03:44.376Z,21.20
2018-06-15T15:06:14.192Z,21.18
2018-06-15T15:08:43.139Z,20.95
2018-06-15T15:11:12.242Z,20.51
2018-06-15T15:13:41.334Z,20.94
2018-06-15T15:16:10.438Z,21.18
2018-06-15T15:18:39.667Z,21.00
2018-06-15T15:21:08.730Z,21.03
2018-06-15T15:23:38.001Z,21.04
2018-06-15T15:26:07.195Z,20.40
2018-06-15T15:28:36.318Z,20.56
2018-06-15T15:31:05.597Z,20.59
2018-06-15T15:33:34.650Z,20.52
2018-06-15T15:36:03.973Z,20.72
2018-06-15T15:38:33.064Z,20.63
2018-06-15T15:41:02.189Z,20.61
2018-06-15T15:43:31.189Z,20.54
2018-06-15T15:46:00.165Z,20.48
2018-06-15T15:48:29.352Z,20.56
2018-06-15T15:50:58.414Z,20.74
2018-06-15T15:53:27.485Z,20.55
2018-06-15T15:55:57.046Z,20.36
2018-06-15T15:58:26.025Z,20.35
2018-06-15T16:00:55.175Z,20.12
2018-06-15T16:03:24.320Z,19.78
2018-06-15T16:05:53.398Z,19.73
2018-06-15T16:08:22.528Z,19.79
2018-06-15T16:10:51.986Z,19.49
2018-06-15T16:13:21.399Z,19.35
2018-06-15T16:15:50.899Z,19.47
2018-06-15T16:18:20.388Z,19.51
2018-06-15T16:20:49.684Z,19.65
2018-06-15T16:23:19.034Z,19.76
2018-06-15T16:25:48.435Z,19.55
2018-06-15T16:28:18.044Z,19.65
2018-06-15T16:30:47.477Z,19.59
2018-06-15T16:33:16.831Z,19.71
2018-06-15T16:35:46.902Z,19.80
2018-06-15T16:38:16.410Z,19.68
2018-06-15T16:40:45.776Z,19.54
2018-06-15T16:43:15.354Z,19.48
2018-06-15T16:45:44.796Z,19.47
2018-06-15T16:48:14.052Z,19.53
2018-06-15T16:50:43.388Z,19.51
2018-06-15T16:53:12.438Z,19.31
2018-06-15T16:55:41.493Z,19.17
2018-06-15T16:58:11.928Z,19.05
2018-06-15T17:00:41.418Z,18.94
2018-06-15T17:03:10.936Z,18.99
2018-06-15T17:05:40.806Z,19.04
2018-06-15T17:08:10.621Z,19.02
2018-06-15T17:10:39.897Z,18.93
2018-06-15T17:13:09.285Z,18.97
2018-06-15T17:15:38.647Z,18.94
2018-06-15T17:18:08.616Z,18.92
2018-06-15T17:20:37.966Z,18.78
2018-06-15T17:23:07.394Z,18.87
2018-06-15T17:25:36.759Z,18.83
2018-06-15T17:28:06.562Z,18.73
2018-06-15T17:30:36.356Z,18.73
2018-06-15T17:33:05.781Z,18.67
2018-06-15T17:35:35.109Z,18.73
2018-06-15T17:38:04.267Z,18.60
2018-06-15T17:40:33.410Z,18.51
2018-06-15T17:43:02.467Z,18.43
2018-06-15T17:45:31.557Z,18.36
2018-06-15T17:48:00.784Z,18.33
2018-06-15T17:50:30.504Z,18.24
2018-06-15T17:52:59.747Z,18.17
2018-06-15T17:55:28.888Z,18.11
2018-06-15T17:57:58.091Z,18.09
2018-06-15T18:00:27.319Z,17.94
2018-06-15T18:02:56.815Z,18.00
2018-06-15T18:05:26.195Z,17.91
2018-06-15T18:07:55.672Z,17.80
2018-06-15T18:10:25.199Z,17.75
2018-06-15T18:12:54.592Z,17.75
2018-06-15T18:15:24.102Z,17.66
2018-06-15T18:17:53.475Z,17.57
2018-06-15T18:20:24.259Z,17.54
2018-06-15T18:22:54.562Z,17.52
2018-06-15T18:25:24.032Z,17.51
2018-06-15T18:27:53.413Z,17.45
2018-06-15T18:30:22.595Z,17.39
2018-06-15T18:32:52.144Z,17.30
2018-06-15T18:35:21.488Z,17.25
2018-06-15T18:37:52.461Z,17.21
2018-06-15T18:40:21.907Z,17.12
2018-06-15T18:42:51.221Z,17.04
2018-06-15T18:45:20.735Z,17.02
2018-06-15T18:47:50.285Z,16.92
2018-06-15T18:50:19.553Z,16.81
2018-06-15T18:52:49.720Z,16.80
2018-06-15T18:55:19.116Z,16.77
2018-06-15T18:57:48.475Z,16.74
2018-06-15T19:00:17.838Z,16.69
2018-06-15T19:02:47.145Z,16.55
2018-06-15T19:05:17.670Z,16.47
2018-06-15T19:07:48.228Z,16.40
2018-06-15T19:10:18.012Z,16.33
2018-06-15T19:12:47.600Z,16.21
2018-06-15T19:15:16.991Z,16.28
2018-06-15T19:17:46.352Z,16.13
2018-06-15T19:20:15.682Z,16.10
2018-06-15T19:22:45.276Z,16.07
2018-06-15T19:25:14.631Z,15.99
2018-06-15T19:27:44.075Z,15.85
2018-06-15T19:30:13.568Z,15.92
2018-06-15T19:32:44.021Z,15.87
2018-06-15T19:35:13.403Z,15.76
2018-06-15T19:37:42.858Z,15.69
2018-06-15T19:40:12.360Z,15.52
2018-06-15T19:42:41.761Z,15.45
2018-06-15T19:45:11.318Z,15.39
2018-06-15T19:47:40.832Z,15.36
2018-06-15T19:50:10.245Z,15.27
2018-06-15T19:52:39.546Z,15.24
2018-06-15T19:55:08.814Z,15.19
2018-06-15T19:57:38.259Z,15.20
2018-06-15T20:00:08.527Z,15.12
2018-06-15T20:02:37.895Z,15.01
2018-06-15T20:05:07.332Z,14.99
2018-06-15T20:07:36.660Z,14.99
2018-06-15T20:10:05.960Z,14.93
2018-06-15T20:12:35.248Z,14.94
2018-06-15T20:15:04.962Z,14.87
2018-06-15T20:17:34.418Z,14.85
2018-06-15T20:20:03.832Z,14.78
2018-06-15T20:22:33.835Z,14.72
2018-06-15T20:25:05.127Z,14.73
2018-06-15T20:27:34.451Z,14.68
2018-06-15T20:30:04.059Z,14.67
2018-06-15T20:32:33.443Z,14.79
2018-06-15T20:35:02.698Z,14.87
2018-06-15T20:37:32.297Z,14.83
2018-06-15T20:40:01.567Z,14.73
2018-06-15T20:42:30.954Z,14.43
2018-06-15T20:45:00.578Z,14.52
2018-06-15T20:47:30.089Z,14.44
2018-06-15T20:49:59.716Z,14.40
2018-06-15T20:52:29.247Z,14.38
2018-06-15T20:54:58.701Z,14.32
2018-06-15T20:57:28.916Z,14.45
2018-06-15T20:59:58.425Z,14.47
2018-06-15T21:02:27.714Z,14.34
2018-06-15T21:04:57.030Z,14.33
2018-06-15T21:07:27.412Z,14.39
2018-06-15T21:09:57.100Z,14.34
2018-06-15T21:12:26.557Z,14.27
2018-06-15T21:14:56.078Z,14.20
2018-06-15T21:17:25.456Z,14.27
2018-06-15T21:19:54.941Z,14.18
2018-06-15T21:22:24.353Z,14.32
2018-06-15T21:24:53.728Z,14.25
2018-06-15T21:27:23.317Z,14.12
2018-06-15T21:29:53.020Z,14.12
2018-06-15T21:32:22.535Z,14.13
2018-06-15T21:34:52.211Z,14.18
2018-06-15T21:37:22.259Z,14.06
2018-06-15T21:39:51.867Z,14.08
2018-06-15T21:42:23.290Z,14.08
2018-06-15T21:44:52.749Z,14.03
2018-06-15T21:47:22.344Z,14.06
2018-06-15T21:49:52.698Z,14.12
2018-06-15T21:52:22.133Z,14.13
2018-06-15T21:54:51.635Z,14.04
2018-06-15T21:57:21.116Z,14.10
2018-06-15T21:59:50.548Z,14.01
2018-06-15T22:02:20.106Z,14.06
2018-06-15T22:04:49.403Z,13.95
2018-06-15T22:07:18.822Z,14.01
2018-06-15T22:09:48.322Z,14.03
2018-06-15T22:12:17.816Z,14.04
2018-06-15T22:14:47.115Z,14.11
2018-06-15T22:17:16.608Z,14.15
2018-06-15T22:19:46.069Z,14.13
2018-06-15T22:22:15.499Z,14.00
2018-06-15T22:24:45.036Z,14.02
2018-06-15T22:27:15.374Z,13.96
2018-06-15T22:29:45.567Z,14.06
2018-06-15T22:32:15.077Z,13.93
2018-06-15T22:34:44.341Z,13.78
2018-06-15T22:37:14.510Z,13.89
2018-06-15T22:39:43.793Z,13.74
2018-06-15T22:42:13.214Z,13.81
2018-06-15T22:44:42.630Z,13.90
2018-06-15T22:47:12.074Z,13.86
2018-06-15T22:49:41.639Z,13.89
2018-06-15T22:52:11.152Z,13.91
2018-06-15T22:54:40.653Z,13.99
2018-06-15T22:57:10.029Z,13.99
2018-06-15T22:59:39.539Z,13.92
2018-06-15T23:02:09.085Z,14.02
2018-06-15T23:04:38.601Z,13.88
2018-06-15T23:07:07.901Z,13.81
2018-06-15T23:09:37.264Z,13.77
2018-06-15T23:12:06.506Z,13.77
2018-06-15T23:14:35.963Z,13.79
2018-06-15T23:17:05.420Z,13.81
2018-06-15T23:19:34.857Z,13.90
2018-06-15T23:22:04.266Z,13.88
2018-06-15T23:24:33.720Z,13.85
2018-06-15T23:27:02.988Z,13.79
2018-06-15T23:29:32.309Z,13.74
2018-06-15T23:32:01.595Z,13.77
2018-06-15T23:34:30.919Z,13.85
2018-06-15T23:37:00.252Z,13.75
2018-06-15T23:39:29.581Z,13.73
2018-06-15T23:41:58.988Z,13.72
2018-06-15T23:44:28.312Z,13.73
2018-06-15T23:46:57.610Z,13.75
2018-06-15T23:49:27.004Z,13.74
2018-06-15T23:51:56.339Z,13.75
2018-06-15T23:54:25.613Z,13.79
2018-06-15T23:56:55.843Z,13.74
2018-06-15T23:59:25.201Z,13.68
